(°C)
15°
15°
13°
11°
(°C)
W
W
W
W
W
WSW
WSW
(km/h)
21-40
20-37
17-30
13-21
10-14
9-16
9-16
(mm)
3
0
0
0
0
0
0
(%)
26
5
5
4
3
2
1

Wysokość słońca

/ 18.2°
sun-icon
UV 4
04:26
20:12
Pełnia (185°)
20:55
04:28

METAR dla 51.82°N 39.23°E (UUOO)

Czas Warunki Temperatura/
Punkt rosy
Wiatr Widzialność Pogoda Chmury Ciśn. atm. Zmień Surowy
16°C / -2°C 300º 17kt >10km - 1008 No Significant change. Runway 30: Clear and dry, 1-10% contamination with <1mm, friction coefficient 0.70. UUOO 161400Z 30009MPS 9999 SCT///CB 16/M02 Q1008 R30/010070 NOSIG RMK QFE742
15°C / -1°C 310º 14kt >10km Light Showers Rain 3.00mm precipitation Vertical Visibility of 0ft. 1008 No Significant change. Runway 30: Clear and dry, 1-10% contamination with <1mm, friction coefficient 0.70. UUOO 161330Z 31007MPS 9999 -SHRA SCT///CB 15/M01 Q1008 R30/010070 NOSIG RMK QFE742
16°C / -1°C 290º 17kt >10km - 1008 No Significant change. Runway 30: Clear and dry, 1-10% contamination with <1mm, friction coefficient 0.70. UUOO 161300Z 29009MPS 9999 SCT///CB 16/M01 Q1008 R30/010070 NOSIG RMK QFE742
16°C / 0°C 310º 17kt >10km - 1008 No Significant change. Runway 30: Clear and dry, 1-10% contamination with <1mm, friction coefficient 0.70. UUOO 161230Z 31009MPS 9999 SCT///CB 16/00 Q1008 R30/010070 NOSIG RMK QFE742
15°C / 0°C 300º 17kt >10km - 1008 No Significant change. Runway 30: Clear and dry, 1-10% contamination with <1mm, friction coefficient 0.70. UUOO 161200Z 30009MPS 9999 SCT///CB 15/M00 Q1008 R30/010070 NOSIG RMK QFE742
15°C / 0°C 300º 16kt >10km - 1008 No Significant change. Runway 30: Clear and dry, 1-10% contamination with <1mm, friction coefficient 0.70. UUOO 161130Z 30008MPS 9999 BKN///CB 15/00 Q1008 R30/010070 NOSIG RMK QFE742
16°C / -2°C 300º 16kt Gust 27kt >10km - 1008 No Significant change. Runway 30: Clear and dry, 1-10% contamination with <1mm, friction coefficient 0.70. UUOO 161100Z 30008G14MPS 9999 BKN///CB 16/M02 Q1008 R30/010070 NOSIG RMK QFE742
15°C / 0°C 290º 14kt >10km - 1008 No Significant change. Runway 30: Clear and dry, 1-10% contamination with <1mm, friction coefficient 0.70. UUOO 161030Z 29007MPS 9999 BKN///CB 15/00 Q1008 R30/010070 NOSIG RMK QFE743
VFR 14°C / -1°C 290º 17kt Gust 29kt >10km - Broken Clouds 5600ft 1008 No Significant change. Runway 30: Clear and dry, 1-10% contamination with <1mm, friction coefficient 0.70. UUOO 161000Z 29009G15MPS 9999 BKN056CB 14/M01 Q1008 R30/010070 NOSIG RMK QFE743
VFR 16°C / 0°C 280º 19kt >10km - Broken Clouds 7600ft 1008 No Significant change. Runway 30: Clear and dry, 1-10% contamination with <1mm, friction coefficient 0.70. UUOO 160930Z 28010MPS 9999 BKN076CB 16/M00 Q1008 R30/010070 NOSIG RMK QFE742
16°C / 1°C 300º 17kt >10km - 1008 No Significant change. Runway 30: Clear and dry, 1-10% contamination with <1mm, friction coefficient 0.70. UUOO 160900Z 30009MPS 9999 BKN///CB 16/01 Q1008 R30/010070 NOSIG RMK QFE742
VFR 14°C / 3°C 280º 14kt Gust 25kt >10km Light Showers Rain 3.00mm precipitation Vertical Visibility of 0ft. 1008 No Significant change. Runway 30: Clear and dry, 1-10% contamination with <1mm, friction coefficient 0.70. UUOO 160830Z 28007G13MPS 9999 -SHRA BKN043CB 14/03 Q1008 R30/010070 NOSIG RMK QFE742
VFR 14°C / 4°C 300º 17kt >10km - Clouds and Visibility OK 1008 No Significant change. Runway 30: Clear and dry, 1-10% contamination with <1mm, friction coefficient 0.70. UUOO 160800Z 30009MPS CAVOK 14/04 Q1008 R30/010070 NOSIG RMK QFE742
MVFR 13°C / 5°C 300º 14kt >10km - Broken Clouds 3000ft 1008 No Significant change. Runway 30: Clear and dry, 1-10% contamination with <1mm, friction coefficient 0.70. UUOO 160730Z 30007MPS 9999 BKN030 13/05 Q1008 R30/010070 NOSIG RMK QFE742
MVFR 13°C / 6°C 300º 16kt >10km - Broken Clouds 2600ft 1008 No Significant change. Runway 30: Clear and dry, 1-10% contamination with <1mm, friction coefficient 0.70. UUOO 160700Z 30008MPS 9999 BKN026 13/06 Q1008 R30/010070 NOSIG RMK QFE742
MVFR 12°C / 7°C 300º 14kt >10km - Broken Clouds 2100ft 1008 No Significant change. Runway 30: Clear and dry, 1-10% contamination with <1mm, friction coefficient 0.70. UUOO 160630Z 30007MPS 9999 BKN021 12/07 Q1008 R30/010070 NOSIG RMK QFE742
MVFR 11°C / 7°C 300º 16kt >10km - Broken Clouds 1700ft 1007 No Significant change. Runway 30: Clear and dry, 1-10% contamination with <1mm, friction coefficient 0.70. UUOO 160600Z 30008MPS 9999 BKN017 11/07 Q1007 R30/010070 NOSIG RMK QFE742
MVFR 10°C / 7°C 300º 14kt >10km - Broken Clouds 1300ft 1007 No Significant change. Runway 30: Clear and dry, 1-10% contamination with <1mm, friction coefficient 0.70. UUOO 160530Z 30007MPS 9999 BKN013 10/07 Q1007 R30/010070 NOSIG RMK QFE742
MVFR 10°C / 7°C 290º 14kt >10km - Broken Clouds 1200ft 1007 No Significant change. Runway 30: Clear and dry, 1-10% contamination with <1mm, friction coefficient 0.70. UUOO 160500Z 29007MPS 9999 BKN012 10/07 Q1007 R30/010070 NOSIG RMK QFE742
MVFR 10°C / 7°C 290º 14kt >10km - Broken Clouds 1000ft 1007 No Significant change. Runway 30: Clear and dry, 1-10% contamination with <1mm, friction coefficient 0.70. UUOO 160430Z 29007MPS 9999 BKN010 10/07 Q1007 R30/010070 NOSIG RMK QFE742
MVFR 9°C / 7°C 290º 12kt >10km - Broken Clouds 1000ft 1007 No Significant change. Runway 30: Damp, 51-100% contamination with <1mm, friction coefficient 0.60. UUOO 160400Z 29006MPS 9999 BKN010 09/07 Q1007 R30/190060 NOSIG RMK QFE742
IFR 9°C / 7°C 290º 14kt >10km - Broken Clouds 900ft 1007 No Significant change. Runway 30: Damp, 51-100% contamination with <1mm, friction coefficient 0.60. UUOO 160330Z 29007MPS 9999 BKN009 09/07 Q1007 R30/190060 NOSIG RMK QFE742
IFR 9°C / 7°C 290º 12kt >10km - Broken Clouds 800ft 1007 No Significant change. Runway 30: Damp, 51-100% contamination with <1mm, friction coefficient 0.60. UUOO 160300Z 29006MPS 9999 BKN008 09/07 Q1007 R30/190060 NOSIG RMK QFE742
IFR 8°C / 7°C 290º 8kt >10km - Broken Clouds 900ft 1007 No Significant change. Runway 30: Clear and dry, 51-100% contamination with <1mm, friction coefficient 0.60. UUOO 160230Z 29004MPS 9999 BKN009 08/07 Q1007 R30/090060 NOSIG RMK QFE741

16°C / -2°C

[Więcej]
Wiatr 300º 17kt
Widzialność >10km
Pogoda -
Chmury
Ciśn. atm. 1008
Zmień No Significant change. Runway 30: Clear and dry, 1-10% contamination with <1mm, friction coefficient 0.70.
Surowy UUOO 161400Z 30009MPS 9999 SCT///CB 16/M02 Q1008 R30/010070 NOSIG RMK QFE742

15°C / -1°C

[Więcej]
Wiatr 310º 14kt
Widzialność >10km
Pogoda Light Showers Rain 3.00mm precipitation
Chmury Vertical Visibility of 0ft.
Ciśn. atm. 1008
Zmień No Significant change. Runway 30: Clear and dry, 1-10% contamination with <1mm, friction coefficient 0.70.
Surowy UUOO 161330Z 31007MPS 9999 -SHRA SCT///CB 15/M01 Q1008 R30/010070 NOSIG RMK QFE742

16°C / -1°C

[Więcej]
Wiatr 290º 17kt
Widzialność >10km
Pogoda -
Chmury
Ciśn. atm. 1008
Zmień No Significant change. Runway 30: Clear and dry, 1-10% contamination with <1mm, friction coefficient 0.70.
Surowy UUOO 161300Z 29009MPS 9999 SCT///CB 16/M01 Q1008 R30/010070 NOSIG RMK QFE742

16°C / 0°C

[Więcej]
Wiatr 310º 17kt
Widzialność >10km
Pogoda -
Chmury
Ciśn. atm. 1008
Zmień No Significant change. Runway 30: Clear and dry, 1-10% contamination with <1mm, friction coefficient 0.70.
Surowy UUOO 161230Z 31009MPS 9999 SCT///CB 16/00 Q1008 R30/010070 NOSIG RMK QFE742

15°C / 0°C

[Więcej]
Wiatr 300º 17kt
Widzialność >10km
Pogoda -
Chmury
Ciśn. atm. 1008
Zmień No Significant change. Runway 30: Clear and dry, 1-10% contamination with <1mm, friction coefficient 0.70.
Surowy UUOO 161200Z 30009MPS 9999 SCT///CB 15/M00 Q1008 R30/010070 NOSIG RMK QFE742

15°C / 0°C

[Więcej]
Wiatr 300º 16kt
Widzialność >10km
Pogoda -
Chmury
Ciśn. atm. 1008
Zmień No Significant change. Runway 30: Clear and dry, 1-10% contamination with <1mm, friction coefficient 0.70.
Surowy UUOO 161130Z 30008MPS 9999 BKN///CB 15/00 Q1008 R30/010070 NOSIG RMK QFE742

16°C / -2°C

[Więcej]
Wiatr 300º 16kt Gust 27kt
Widzialność >10km
Pogoda -
Chmury
Ciśn. atm. 1008
Zmień No Significant change. Runway 30: Clear and dry, 1-10% contamination with <1mm, friction coefficient 0.70.
Surowy UUOO 161100Z 30008G14MPS 9999 BKN///CB 16/M02 Q1008 R30/010070 NOSIG RMK QFE742

15°C / 0°C

[Więcej]
Wiatr 290º 14kt
Widzialność >10km
Pogoda -
Chmury
Ciśn. atm. 1008
Zmień No Significant change. Runway 30: Clear and dry, 1-10% contamination with <1mm, friction coefficient 0.70.
Surowy UUOO 161030Z 29007MPS 9999 BKN///CB 15/00 Q1008 R30/010070 NOSIG RMK QFE743

VFR

14°C / -1°C

[Więcej]
Wiatr 290º 17kt Gust 29kt
Widzialność >10km
Pogoda -
Chmury Broken Clouds 5600ft
Ciśn. atm. 1008
Zmień No Significant change. Runway 30: Clear and dry, 1-10% contamination with <1mm, friction coefficient 0.70.
Surowy UUOO 161000Z 29009G15MPS 9999 BKN056CB 14/M01 Q1008 R30/010070 NOSIG RMK QFE743

VFR

16°C / 0°C

[Więcej]
Wiatr 280º 19kt
Widzialność >10km
Pogoda -
Chmury Broken Clouds 7600ft
Ciśn. atm. 1008
Zmień No Significant change. Runway 30: Clear and dry, 1-10% contamination with <1mm, friction coefficient 0.70.
Surowy UUOO 160930Z 28010MPS 9999 BKN076CB 16/M00 Q1008 R30/010070 NOSIG RMK QFE742

16°C / 1°C

[Więcej]
Wiatr 300º 17kt
Widzialność >10km
Pogoda -
Chmury
Ciśn. atm. 1008
Zmień No Significant change. Runway 30: Clear and dry, 1-10% contamination with <1mm, friction coefficient 0.70.
Surowy UUOO 160900Z 30009MPS 9999 BKN///CB 16/01 Q1008 R30/010070 NOSIG RMK QFE742

VFR

14°C / 3°C

[Więcej]
Wiatr 280º 14kt Gust 25kt
Widzialność >10km
Pogoda Light Showers Rain 3.00mm precipitation
Chmury Vertical Visibility of 0ft.
Ciśn. atm. 1008
Zmień No Significant change. Runway 30: Clear and dry, 1-10% contamination with <1mm, friction coefficient 0.70.
Surowy UUOO 160830Z 28007G13MPS 9999 -SHRA BKN043CB 14/03 Q1008 R30/010070 NOSIG RMK QFE742

VFR

14°C / 4°C

[Więcej]
Wiatr 300º 17kt
Widzialność >10km
Pogoda -
Chmury Clouds and Visibility OK
Ciśn. atm. 1008
Zmień No Significant change. Runway 30: Clear and dry, 1-10% contamination with <1mm, friction coefficient 0.70.
Surowy UUOO 160800Z 30009MPS CAVOK 14/04 Q1008 R30/010070 NOSIG RMK QFE742

MVFR

13°C / 5°C

[Więcej]
Wiatr 300º 14kt
Widzialność >10km
Pogoda -
Chmury Broken Clouds 3000ft
Ciśn. atm. 1008
Zmień No Significant change. Runway 30: Clear and dry, 1-10% contamination with <1mm, friction coefficient 0.70.
Surowy UUOO 160730Z 30007MPS 9999 BKN030 13/05 Q1008 R30/010070 NOSIG RMK QFE742

MVFR

13°C / 6°C

[Więcej]
Wiatr 300º 16kt
Widzialność >10km
Pogoda -
Chmury Broken Clouds 2600ft
Ciśn. atm. 1008
Zmień No Significant change. Runway 30: Clear and dry, 1-10% contamination with <1mm, friction coefficient 0.70.
Surowy UUOO 160700Z 30008MPS 9999 BKN026 13/06 Q1008 R30/010070 NOSIG RMK QFE742

MVFR

12°C / 7°C

[Więcej]
Wiatr 300º 14kt
Widzialność >10km
Pogoda -
Chmury Broken Clouds 2100ft
Ciśn. atm. 1008
Zmień No Significant change. Runway 30: Clear and dry, 1-10% contamination with <1mm, friction coefficient 0.70.
Surowy UUOO 160630Z 30007MPS 9999 BKN021 12/07 Q1008 R30/010070 NOSIG RMK QFE742

MVFR

11°C / 7°C

[Więcej]
Wiatr 300º 16kt
Widzialność >10km
Pogoda -
Chmury Broken Clouds 1700ft
Ciśn. atm. 1007
Zmień No Significant change. Runway 30: Clear and dry, 1-10% contamination with <1mm, friction coefficient 0.70.
Surowy UUOO 160600Z 30008MPS 9999 BKN017 11/07 Q1007 R30/010070 NOSIG RMK QFE742

MVFR

10°C / 7°C

[Więcej]
Wiatr 300º 14kt
Widzialność >10km
Pogoda -
Chmury Broken Clouds 1300ft
Ciśn. atm. 1007
Zmień No Significant change. Runway 30: Clear and dry, 1-10% contamination with <1mm, friction coefficient 0.70.
Surowy UUOO 160530Z 30007MPS 9999 BKN013 10/07 Q1007 R30/010070 NOSIG RMK QFE742

MVFR

10°C / 7°C

[Więcej]
Wiatr 290º 14kt
Widzialność >10km
Pogoda -
Chmury Broken Clouds 1200ft
Ciśn. atm. 1007
Zmień No Significant change. Runway 30: Clear and dry, 1-10% contamination with <1mm, friction coefficient 0.70.
Surowy UUOO 160500Z 29007MPS 9999 BKN012 10/07 Q1007 R30/010070 NOSIG RMK QFE742

MVFR

10°C / 7°C

[Więcej]
Wiatr 290º 14kt
Widzialność >10km
Pogoda -
Chmury Broken Clouds 1000ft
Ciśn. atm. 1007
Zmień No Significant change. Runway 30: Clear and dry, 1-10% contamination with <1mm, friction coefficient 0.70.
Surowy UUOO 160430Z 29007MPS 9999 BKN010 10/07 Q1007 R30/010070 NOSIG RMK QFE742

MVFR

9°C / 7°C

[Więcej]
Wiatr 290º 12kt
Widzialność >10km
Pogoda -
Chmury Broken Clouds 1000ft
Ciśn. atm. 1007
Zmień No Significant change. Runway 30: Damp, 51-100% contamination with <1mm, friction coefficient 0.60.
Surowy UUOO 160400Z 29006MPS 9999 BKN010 09/07 Q1007 R30/190060 NOSIG RMK QFE742

IFR

9°C / 7°C

[Więcej]
Wiatr 290º 14kt
Widzialność >10km
Pogoda -
Chmury Broken Clouds 900ft
Ciśn. atm. 1007
Zmień No Significant change. Runway 30: Damp, 51-100% contamination with <1mm, friction coefficient 0.60.
Surowy UUOO 160330Z 29007MPS 9999 BKN009 09/07 Q1007 R30/190060 NOSIG RMK QFE742

IFR

9°C / 7°C

[Więcej]
Wiatr 290º 12kt
Widzialność >10km
Pogoda -
Chmury Broken Clouds 800ft
Ciśn. atm. 1007
Zmień No Significant change. Runway 30: Damp, 51-100% contamination with <1mm, friction coefficient 0.60.
Surowy UUOO 160300Z 29006MPS 9999 BKN008 09/07 Q1007 R30/190060 NOSIG RMK QFE742

IFR

8°C / 7°C

[Więcej]
Wiatr 290º 8kt
Widzialność >10km
Pogoda -
Chmury Broken Clouds 900ft
Ciśn. atm. 1007
Zmień No Significant change. Runway 30: Clear and dry, 51-100% contamination with <1mm, friction coefficient 0.60.
Surowy UUOO 160230Z 29004MPS 9999 BKN009 08/07 Q1007 R30/090060 NOSIG RMK QFE741

TAF dla 51.82°N 39.23°E (UUOO)

From till


From till Wind 300º 14kt. Gust 23kt. Visibility 10km or more. Broken Clouds 1600ft.

Surowy: TAF UUOO 161400Z 1615/1624 30007G12MPS 9999 BKN016CB

Radar i prognoza opadów na teraz dla 51.82°N 39.23°E

Mżawka
Lekkie
Umiarkowane
Intensywne
Bardzo Intensywne
Grad

Wskaźnik lokalizacji jest umieszczony na 51.82°N 39.23°E. Animacja przedstawia radar opadów dla ostatniej godziny, jak również 1h prognozę pogody. Mżawka i lekkie opady mogą być niewidoczne na radarze. Intensywność opadów jest oznaczona kolorami od jasnoniebieskiego do ciemnofioletowego.

Aktualne zdjęcia satelitarne i zdjęcia opadów deszczu dla 51.82°N 39.23°E

Wskaźnik lokalizacji znajduje się na 51.82°N 39.23°E. [Więcej]

Obraz satelitarny w czasie rzeczywistym łączy światło widzialne w ciągu dnia z promieniowaniem podczerwonym w nocy. W nocy obraz nie jest ciemny, ponieważ promieniowanie podczerwone może wykrywać różnice temperatur. Niestety niskie chmury i mgłę trudno odróżnić od temperatury gruntu, przez co mogą być prawie niewidoczne w nocy. Zdjęcia satelitarne Meteosat dla Europy są aktualizowane w czasie rzeczywistym co 5 minut. Obrazy GOES-16/GOES-17 (Ameryka Północna i Południowa) oraz Himawari (Azja) są aktualizowane co 10 minut.

Prawa autorskie 2022 EUMETSAT / meteoblue. / Prawa autorskie 2022 meteoblue

Powrót do góry